AUR44D EGJB-EGGD

Flight info

Callsign AUR44D
Flight time 0h 42m
Altitude 14000
Route SKERY DCT BHD DCT EXMOR
Aircraft AT76/M-SDFGIRY/S

Departure

Time 2026-04-20 19:31
Airport Guernsey Airport (EGJB)

Arrival

Time 2026-04-20 20:14
Airport Bristol Airport (EGGD)
Time Latitude Longitude Altitude Speed Heading
2026-04-20 19:10 49.43284 -2.59744 324 ft 0 kts 178°
2026-04-20 19:22 49.43286 -2.59745 324 ft 2 kts 178°
2026-04-20 19:22 49.43311 -2.59746 324 ft 4 kts 178°
2026-04-20 19:23 49.43338 -2.59747 324 ft 4 kts 177°
2026-04-20 19:23 49.43351 -2.59748 324 ft 0 kts 176°
2026-04-20 19:25 49.43348 -2.59754 324 ft 1 kts 227°
2026-04-20 19:26 49.43345 -2.59828 322 ft 15 kts 267°
2026-04-20 19:26 49.43342 -2.59965 313 ft 16 kts 268°
2026-04-20 19:26 49.43336 -2.60181 297 ft 22 kts 268°
2026-04-20 19:26 49.43328 -2.60449 289 ft 25 kts 266°
2026-04-20 19:27 49.43338 -2.60700 294 ft 24 kts 280°
2026-04-20 19:27 49.43364 -2.60931 306 ft 19 kts 278°
2026-04-20 19:27 49.43360 -2.61132 308 ft 18 kts 268°
2026-04-20 19:27 49.43359 -2.61236 309 ft 0 kts 281°
2026-04-20 19:30 49.43360 -2.61239 309 ft 4 kts 284°
2026-04-20 19:30 49.43397 -2.61317 312 ft 11 kts 313°
2026-04-20 19:30 49.43464 -2.61340 312 ft 5 kts 59°
2026-04-20 19:30 49.43466 -2.61323 312 ft 0 kts 86°
2026-04-20 19:31 49.43466 -2.61314 312 ft 11 kts 86°
2026-04-20 19:31 49.43480 -2.60801 306 ft 82 kts 88°
2026-04-20 19:31 49.43499 -2.59749 568 ft 103 kts 85°
2026-04-20 19:31 49.43512 -2.58654 1238 ft 103 kts 85°
2026-04-20 19:32 49.43573 -2.57566 1826 ft 106 kts 83°
2026-04-20 19:32 49.43652 -2.56316 2062 ft 130 kts 84°
2026-04-20 19:32 49.43726 -2.54822 2383 ft 148 kts 86°
2026-04-20 19:32 49.43780 -2.53226 2875 ft 153 kts 87°
2026-04-20 19:33 49.43869 -2.51599 3333 ft 154 kts 77°
2026-04-20 19:33 49.44613 -2.50410 3701 ft 170 kts 23°
2026-04-20 19:33 49.45808 -2.50658 4158 ft 187 kts 333°
2026-04-20 19:33 49.46694 -2.52162 4562 ft 193 kts 309°
2026-04-20 19:34 49.47206 -2.53336 4810 ft 198 kts 308°
2026-04-20 19:34 49.47941 -2.55136 5257 ft 199 kts 307°
2026-04-20 19:34 49.48636 -2.56926 5748 ft 196 kts 305°
2026-04-20 19:34 49.49323 -2.58719 6253 ft 193 kts 304°
2026-04-20 19:35 49.50007 -2.60467 6743 ft 189 kts 303°
2026-04-20 19:35 49.50696 -2.62183 7157 ft 189 kts 304°
2026-04-20 19:35 49.51386 -2.63902 7556 ft 189 kts 304°
2026-04-20 19:35 49.52081 -2.65614 7951 ft 189 kts 303°
2026-04-20 19:36 49.52768 -2.67339 8346 ft 189 kts 302°
2026-04-20 19:36 49.53455 -2.69058 8749 ft 188 kts 302°
2026-04-20 19:36 49.54146 -2.70778 9138 ft 189 kts 302°
2026-04-20 19:36 49.54837 -2.72498 9515 ft 190 kts 302°
2026-04-20 19:37 49.55532 -2.74236 9879 ft 191 kts 302°
2026-04-20 19:37 49.56225 -2.75963 10277 ft 190 kts 302°
2026-04-20 19:37 49.56920 -2.77704 10600 ft 191 kts 301°
2026-04-20 19:37 49.57617 -2.79450 10937 ft 192 kts 301°
2026-04-20 19:38 49.58318 -2.81202 11254 ft 193 kts 301°
2026-04-20 19:38 49.59022 -2.82967 11591 ft 194 kts 301°
2026-04-20 19:38 49.59721 -2.84724 11974 ft 190 kts 301°
2026-04-20 19:38 49.60521 -2.86320 12242 ft 191 kts 324°
2026-04-20 19:39 49.61719 -2.87262 12527 ft 194 kts 333°
2026-04-20 19:39 49.62942 -2.88138 12888 ft 192 kts 332°
2026-04-20 19:39 49.64155 -2.89024 13178 ft 195 kts 332°
2026-04-20 19:39 49.65377 -2.89949 13489 ft 195 kts 332°
2026-04-20 19:40 49.66603 -2.90884 13756 ft 199 kts 332°
2026-04-20 19:40 49.67837 -2.91852 14038 ft 201 kts 331°
2026-04-20 19:40 49.69090 -2.92840 14125 ft 210 kts 331°
2026-04-20 19:40 49.70422 -2.93899 14165 ft 220 kts 330°
2026-04-20 19:41 49.71810 -2.94996 14185 ft 228 kts 330°
2026-04-20 19:41 49.73247 -2.96127 14189 ft 235 kts 330°
2026-04-20 19:41 49.74717 -2.97291 14196 ft 240 kts 331°
2026-04-20 19:41 49.76213 -2.98489 14198 ft 244 kts 331°
2026-04-20 19:42 49.77736 -2.99688 14202 ft 247 kts 331°
2026-04-20 19:42 49.79103 -3.00760 14199 ft 249 kts 330°
2026-04-20 19:42 49.80654 -3.01967 14206 ft 250 kts 330°
2026-04-20 19:42 49.82209 -3.03187 14203 ft 251 kts 331°
2026-04-20 19:43 49.83238 -3.04005 14200 ft 251 kts 330°
2026-04-20 19:43 49.85326 -3.05665 14208 ft 253 kts 331°
2026-04-20 19:43 49.86894 -3.06915 14204 ft 254 kts 330°
2026-04-20 19:43 49.88466 -3.08165 14204 ft 254 kts 330°
2026-04-20 19:44 49.90036 -3.09415 14207 ft 253 kts 330°
2026-04-20 19:44 49.91601 -3.10674 14204 ft 254 kts 331°
2026-04-20 19:44 49.93174 -3.11918 14216 ft 254 kts 332°
2026-04-20 19:44 49.94748 -3.13169 14214 ft 255 kts 330°
2026-04-20 19:45 49.96327 -3.14429 14210 ft 255 kts 331°
2026-04-20 19:45 49.97905 -3.15685 14212 ft 255 kts 330°
2026-04-20 19:45 49.99482 -3.16935 14217 ft 254 kts 330°
2026-04-20 19:45 50.00863 -3.18027 14207 ft 254 kts 331°
2026-04-20 19:46 50.02438 -3.19281 14211 ft 255 kts 331°
2026-04-20 19:46 50.04018 -3.20542 14210 ft 256 kts 331°
2026-04-20 19:46 50.05604 -3.21820 14217 ft 256 kts 330°
2026-04-20 19:46 50.07189 -3.23091 14211 ft 257 kts 330°
2026-04-20 19:47 50.08778 -3.24354 14216 ft 257 kts 331°
2026-04-20 19:47 50.10363 -3.25629 14212 ft 257 kts 331°
2026-04-20 19:47 50.11954 -3.26902 14215 ft 257 kts 331°
2026-04-20 19:47 50.13544 -3.28183 14219 ft 258 kts 331°
2026-04-20 19:48 50.15139 -3.29457 14224 ft 258 kts 332°
2026-04-20 19:48 50.16737 -3.30729 14221 ft 258 kts 331°
2026-04-20 19:48 50.18337 -3.31993 14214 ft 258 kts 332°
2026-04-20 19:48 50.19932 -3.33264 14218 ft 258 kts 331°
2026-04-20 19:49 50.21525 -3.34542 14213 ft 258 kts 332°
2026-04-20 19:49 50.23119 -3.35831 14221 ft 258 kts 331°
2026-04-20 19:49 50.24715 -3.37119 14217 ft 258 kts 331°
2026-04-20 19:49 50.26310 -3.38404 14223 ft 258 kts 331°
2026-04-20 19:50 50.27905 -3.39687 14221 ft 258 kts 331°
2026-04-20 19:50 50.29498 -3.40978 14233 ft 258 kts 331°
2026-04-20 19:50 50.31092 -3.42270 14220 ft 258 kts 332°
2026-04-20 19:50 50.32684 -3.43563 14229 ft 258 kts 332°
2026-04-20 19:51 50.34284 -3.44851 14227 ft 258 kts 331°
2026-04-20 19:51 50.35880 -3.46139 14226 ft 258 kts 331°
2026-04-20 19:51 50.37475 -3.47431 14233 ft 258 kts 331°
2026-04-20 19:51 50.39070 -3.48730 14228 ft 257 kts 332°
2026-04-20 19:52 50.40785 -3.49401 14237 ft 258 kts 358°
2026-04-20 19:52 50.42587 -3.49153 14233 ft 262 kts
2026-04-20 19:52 50.44392 -3.48733 14224 ft 263 kts
2026-04-20 19:52 50.46203 -3.48306 14238 ft 263 kts
2026-04-20 19:53 50.48018 -3.47942 14238 ft 263 kts
2026-04-20 19:53 50.49842 -3.47635 14237 ft 263 kts
2026-04-20 19:53 50.51663 -3.47328 14237 ft 263 kts
2026-04-20 19:53 50.53487 -3.47019 14237 ft 264 kts
2026-04-20 19:54 50.55287 -3.46714 14233 ft 264 kts
2026-04-20 19:54 50.57136 -3.46397 14238 ft 264 kts
2026-04-20 19:54 50.58938 -3.46095 14234 ft 264 kts
2026-04-20 19:54 50.60767 -3.45780 14251 ft 265 kts
2026-04-20 19:55 50.62600 -3.45468 14241 ft 265 kts
2026-04-20 19:55 50.64439 -3.45159 14239 ft 265 kts
2026-04-20 19:55 50.66271 -3.44844 14233 ft 265 kts
2026-04-20 19:55 50.68101 -3.44530 14238 ft 264 kts
2026-04-20 19:56 50.69931 -3.44217 14243 ft 265 kts
2026-04-20 19:56 50.71762 -3.43905 14240 ft 265 kts
2026-04-20 19:56 50.73597 -3.43591 14236 ft 265 kts
2026-04-20 19:56 50.75431 -3.43275 14234 ft 265 kts
2026-04-20 19:57 50.77265 -3.42963 14233 ft 265 kts
2026-04-20 19:57 50.79094 -3.42648 14237 ft 264 kts
2026-04-20 19:57 50.80921 -3.42332 14238 ft 264 kts
2026-04-20 19:57 50.82721 -3.42016 14214 ft 253 kts
2026-04-20 19:58 50.84449 -3.41721 13993 ft 247 kts
2026-04-20 19:58 50.86146 -3.41435 13675 ft 244 kts
2026-04-20 19:58 50.87835 -3.41146 13344 ft 243 kts
2026-04-20 19:58 50.89511 -3.40856 13023 ft 242 kts
2026-04-20 19:59 50.91182 -3.40565 12706 ft 241 kts
2026-04-20 19:59 50.92843 -3.40283 12395 ft 240 kts
2026-04-20 19:59 50.94478 -3.40002 12085 ft 239 kts
2026-04-20 19:59 50.96154 -3.39709 11776 ft 239 kts
2026-04-20 20:00 50.97781 -3.39425 11473 ft 238 kts
2026-04-20 20:00 50.99425 -3.39144 11164 ft 237 kts
2026-04-20 20:00 51.00810 -3.38718 10912 ft 234 kts 19°
2026-04-20 20:00 51.02301 -3.37691 10610 ft 234 kts 23°
2026-04-20 20:01 51.03780 -3.36605 10316 ft 234 kts 24°
2026-04-20 20:01 51.05253 -3.35495 10013 ft 234 kts 24°
2026-04-20 20:01 51.06723 -3.34392 9699 ft 234 kts 25°
2026-04-20 20:01 51.08193 -3.33300 9421 ft 231 kts 25°
2026-04-20 20:02 51.09648 -3.32236 9157 ft 229 kts 25°
2026-04-20 20:02 51.11093 -3.31188 8893 ft 227 kts 25°
2026-04-20 20:02 51.12528 -3.30148 8630 ft 226 kts 25°
2026-04-20 20:02 51.13954 -3.29125 8372 ft 224 kts 25°
2026-04-20 20:03 51.15374 -3.28121 8096 ft 223 kts 25°
2026-04-20 20:03 51.16791 -3.27125 7832 ft 222 kts 25°
2026-04-20 20:03 51.18210 -3.26144 7528 ft 223 kts 25°
2026-04-20 20:03 51.19637 -3.25172 7190 ft 224 kts 25°
2026-04-20 20:04 51.21078 -3.24204 6837 ft 225 kts 25°
2026-04-20 20:04 51.22531 -3.23244 6477 ft 226 kts 25°
2026-04-20 20:04 51.23965 -3.22308 6111 ft 226 kts 25°
2026-04-20 20:04 51.25421 -3.21367 5743 ft 226 kts 25°
2026-04-20 20:05 51.26878 -3.20434 5383 ft 226 kts 25°
2026-04-20 20:05 51.28332 -3.19511 5032 ft 223 kts 25°
2026-04-20 20:05 51.29761 -3.18611 4710 ft 219 kts 25°
2026-04-20 20:05 51.31168 -3.17722 4390 ft 216 kts 25°
2026-04-20 20:06 51.32562 -3.16849 4080 ft 214 kts 25°
2026-04-20 20:06 51.33942 -3.15993 3809 ft 212 kts 25°
2026-04-20 20:06 51.35283 -3.15084 3554 ft 204 kts 36°
2026-04-20 20:06 51.36086 -3.13336 3328 ft 196 kts 75°
2026-04-20 20:07 51.36372 -3.11238 3145 ft 192 kts 79°
2026-04-20 20:07 51.36616 -3.09170 3056 ft 186 kts 81°
2026-04-20 20:07 51.36831 -3.07165 3021 ft 180 kts 81°
2026-04-20 20:07 51.36999 -3.05221 3010 ft 174 kts 84°
2026-04-20 20:08 51.37088 -3.03321 3011 ft 167 kts 87°
2026-04-20 20:08 51.37133 -3.01516 2990 ft 158 kts 88°
2026-04-20 20:08 51.37166 -2.99995 2987 ft 152 kts 87°
2026-04-20 20:08 51.37219 -2.98364 2984 ft 147 kts 86°
2026-04-20 20:09 51.37289 -2.96748 2979 ft 144 kts 86°
2026-04-20 20:09 51.37361 -2.95171 2977 ft 141 kts 86°
2026-04-20 20:09 51.37425 -2.93647 2978 ft 132 kts 86°
2026-04-20 20:09 51.37470 -2.92282 3016 ft 113 kts 87°
2026-04-20 20:10 51.37515 -2.91069 2875 ft 108 kts 86°
2026-04-20 20:10 51.37565 -2.89878 2727 ft 106 kts 86°
2026-04-20 20:10 51.37614 -2.88716 2594 ft 103 kts 88°
2026-04-20 20:10 51.37649 -2.87556 2469 ft 106 kts 86°
2026-04-20 20:11 51.37710 -2.86387 2312 ft 103 kts 85°
2026-04-20 20:11 51.37761 -2.85271 2198 ft 100 kts 87°
2026-04-20 20:11 51.37791 -2.84158 2014 ft 97 kts 88°
2026-04-20 20:11 51.37803 -2.83099 1891 ft 97 kts 88°
2026-04-20 20:12 51.37861 -2.81984 1752 ft 103 kts 83°
2026-04-20 20:12 51.37946 -2.80861 1599 ft 99 kts 85°
2026-04-20 20:12 51.37976 -2.79758 1518 ft 104 kts 88°
2026-04-20 20:13 51.38060 -2.77452 1169 ft 102 kts 86°
2026-04-20 20:13 51.38104 -2.76272 1059 ft 111 kts 86°
2026-04-20 20:13 51.38151 -2.75060 870 ft 105 kts 85°
2026-04-20 20:13 51.38184 -2.73908 730 ft 96 kts 85°
2026-04-20 20:14 51.38231 -2.72849 627 ft 87 kts 85°
2026-04-20 20:14 51.38258 -2.72166 618 ft 50 kts 87°
2026-04-20 20:14 51.38275 -2.71744 609 ft 25 kts 86°
2026-04-20 20:14 51.38284 -2.71511 601 ft 17 kts 86°
2026-04-20 20:15 51.38326 -2.71461 601 ft 8 kts 338°
2026-04-20 20:15 51.38382 -2.71517 601 ft 10 kts 328°
2026-04-20 20:15 51.38434 -2.71576 608 ft 9 kts 307°
2026-04-20 20:15 51.38437 -2.71700 603 ft 14 kts 266°
2026-04-20 20:16 51.38440 -2.71859 603 ft 14 kts 304°
2026-04-20 20:16 51.38491 -2.71877 604 ft 7 kts 356°
2026-04-20 20:16 51.38526 -2.71849 616 ft 5 kts 78°
2026-04-20 20:16 51.38528 -2.71814 611 ft 2 kts 86°
2026-04-20 20:17 51.38529 -2.71802 608 ft 0 kts 85°